Time;durP1;ratioP1;P1;durP2;ratioP2;P2;SDS_P1;SDS_P2;PMS_P1;PMS_P2;Temp;Humidity;BMP_temperature;BMP_pressure;BME280_temperature;BME280_humidity;BME280_pressure;Samples;Min_cycle;Max_cycle;Signal;HPM_P1;HPM_P2
2021/12/03 00:00:36;;;;;;;10.27;2.70;;;0.50;99.90;;;;;;5084614;28;20036;-80
2021/12/03 00:03:03;;;;;;;6.57;2.33;;;0.50;99.90;;;;;;5083883;28;20088;-80
2021/12/03 00:05:29;;;;;;;4.70;2.03;;;0.50;99.90;;;;;;5085409;28;20048;-80
2021/12/03 00:07:54;;;;;;;9.97;2.73;;;0.50;99.90;;;;;;5081291;28;20037;-80
2021/12/03 00:10:23;;;;;;;7.27;2.10;;;0.50;99.90;;;;;;5082549;28;20063;-80
2021/12/03 00:12:49;;;;;;;4.07;1.80;;;0.50;99.90;;;;;;5071700;28;20511;-79
2021/12/03 00:15:16;;;;;;;6.03;2.10;;;0.40;99.90;;;;;;5070031;28;20040;-79
2021/12/03 00:17:42;;;;;;;5.73;2.20;;;0.30;99.90;;;;;;5069919;28;20039;-79
2021/12/03 00:20:13;;;;;;;6.90;1.90;;;0.20;99.90;;;;;;5069672;28;20457;-79
2021/12/03 00:22:39;;;;;;;7.83;2.57;;;0.10;99.90;;;;;;5067893;28;20389;-79
2021/12/03 00:25:05;;;;;;;6.77;3.47;;;0.00;99.90;;;;;;5068896;28;20058;-80
2021/12/03 00:27:31;;;;;;;8.63;2.97;;;0.10;99.90;;;;;;5069391;28;20037;-79
2021/12/03 00:29:56;;;;;;;4.97;2.00;;;0.10;99.90;;;;;;5070189;28;20466;-80
2021/12/03 00:32:22;;;;;;;4.97;2.47;;;0.00;99.90;;;;;;5069638;28;20036;-79
2021/12/03 00:34:48;;;;;;;8.47;4.23;;;0.00;99.90;;;;;;5069490;28;20185;-79
2021/12/03 00:37:13;;;;;;;5.63;2.53;;;0.00;99.90;;;;;;5069260;28;20028;-80
2021/12/03 00:39:39;;;;;;;6.53;2.93;;;0.00;99.90;;;;;;5069745;28;20072;-79
2021/12/03 00:42:05;;;;;;;8.47;2.90;;;0.00;99.90;;;;;;5069490;28;20045;-79
2021/12/03 00:44:31;;;;;;;6.70;2.80;;;0.10;99.90;;;;;;5086858;28;20498;-80
2021/12/03 00:46:58;;;;;;;3.93;2.50;;;0.10;99.90;;;;;;5086527;28;20123;-80
2021/12/03 00:49:25;;;;;;;8.07;2.23;;;0.20;99.90;;;;;;5086587;28;20408;-80
2021/12/03 00:51:51;;;;;;;3.90;2.67;;;0.20;99.90;;;;;;5070129;28;20041;-80
2021/12/03 00:54:16;;;;;;;7.13;2.97;;;0.30;99.90;;;;;;5074006;28;20393;-81
2021/12/03 00:56:42;;;;;;;7.27;3.60;;;0.30;99.90;;;;;;5074035;28;20392;-80
2021/12/03 00:59:08;;;;;;;8.47;3.53;;;0.40;99.90;;;;;;5092203;28;20055;-79
2021/12/03 01:01:35;;;;;;;6.37;3.40;;;0.50;99.90;;;;;;5075635;28;20067;-80
2021/12/03 01:04:01;;;;;;;6.47;3.33;;;0.60;99.90;;;;;;5075169;28;20091;-80
2021/12/03 01:06:26;;;;;;;10.30;4.50;;;0.60;99.90;;;;;;5070178;28;20535;-79
2021/12/03 01:08:52;;;;;;;7.07;4.13;;;0.60;99.90;;;;;;5056299;28;20036;-80
2021/12/03 01:11:18;;;;;;;8.57;4.43;;;0.50;99.90;;;;;;5074542;28;20047;-79
2021/12/03 01:13:45;;;;;;;7.07;4.20;;;0.50;99.90;;;;;;5074688;28;20100;-80
2021/12/03 01:16:12;;;;;;;8.60;4.37;;;0.60;99.90;;;;;;5074370;28;20480;-79
2021/12/03 01:18:39;;;;;;;9.27;4.83;;;0.60;99.90;;;;;;5092054;28;20101;-80
2021/12/03 01:21:06;;;;;;;8.70;4.63;;;0.60;99.90;;;;;;5075040;28;20122;-81
2021/12/03 01:23:32;;;;;;;7.73;4.90;;;0.60;99.90;;;;;;5091038;28;20036;-80
2021/12/03 01:25:58;;;;;;;9.60;5.53;;;0.60;99.90;;;;;;5090451;28;20579;-80
2021/12/03 01:28:26;;;;;;;8.73;5.50;;;0.60;99.90;;;;;;5074436;28;20036;-81
2021/12/03 01:30:52;;;;;;;13.77;7.03;;;0.60;99.90;;;;;;5074029;28;20101;-80
2021/12/03 01:33:17;;;;;;;14.07;6.03;;;0.60;99.90;;;;;;5091100;28;20040;-80
2021/12/03 01:35:43;;;;;;;9.83;5.87;;;0.60;99.90;;;;;;5076027;28;20526;-80
2021/12/03 01:38:09;;;;;;;13.33;6.37;;;0.80;99.90;;;;;;5106169;28;20051;-81
2021/12/03 01:40:37;;;;;;;10.37;6.53;;;0.80;99.90;;;;;;5114557;28;20120;-82
2021/12/03 01:43:05;;;;;;;10.67;6.33;;;0.80;99.90;;;;;;5114430;28;20032;-82
2021/12/03 01:45:34;;;;;;;13.87;6.17;;;0.80;99.90;;;;;;5113570;28;20099;-81
2021/12/03 01:48:01;;;;;;;11.33;6.43;;;0.80;99.90;;;;;;5096332;28;20037;-81
2021/12/03 01:50:41;;;;;;;9.13;5.80;;;0.90;99.90;;;;;;5097000;28;20045;-80
2021/12/03 01:53:08;;;;;;;8.70;5.60;;;0.90;99.90;;;;;;5113884;28;20048;-82
2021/12/03 01:55:34;;;;;;;8.43;6.40;;;0.80;99.90;;;;;;5095396;28;20066;-80
2021/12/03 01:58:00;;;;;;;11.37;5.70;;;0.80;99.90;;;;;;5073044;28;20041;-80
2021/12/03 02:00:39;;;;;;;8.87;5.90;;;0.80;99.90;;;;;;5073944;28;20399;-80
2021/12/03 02:03:09;;;;;;;12.90;5.73;;;0.80;99.90;;;;;;5074012;28;20457;-80
2021/12/03 02:05:36;;;;;;;13.57;7.40;;;0.90;99.90;;;;;;5074223;28;20044;-82
2021/12/03 02:08:03;;;;;;;13.70;8.63;;;0.90;99.90;;;;;;5089955;28;20045;-80
2021/12/03 02:10:28;;;;;;;10.17;6.73;;;0.80;99.90;;;;;;5073425;28;20067;-80
2021/12/03 02:12:55;;;;;;;11.60;8.20;;;0.90;99.90;;;;;;5075202;28;20039;-80
2021/12/03 02:15:21;;;;;;;14.80;8.03;;;0.90;99.90;;;;;;5076014;28;20058;-80
2021/12/03 02:17:47;;;;;;;10.70;7.63;;;0.90;99.90;;;;;;5091458;28;20073;-80
2021/12/03 02:20:14;;;;;;;11.93;7.77;;;1.00;99.90;;;;;;5091896;28;20076;-80
2021/12/03 02:22:41;;;;;;;15.57;9.23;;;0.90;99.90;;;;;;5091432;28;20044;-81
2021/12/03 02:25:11;;;;;;;16.83;9.80;;;0.90;99.90;;;;;;5074423;28;20053;-80
2021/12/03 02:27:37;;;;;;;20.23;10.63;;;1.00;99.90;;;;;;5091900;28;20036;-81
2021/12/03 02:30:04;;;;;;;15.53;10.23;;;1.00;99.90;;;;;;5092105;28;20043;-80
2021/12/03 02:32:30;;;;;;;18.93;12.50;;;1.00;99.90;;;;;;5075780;28;20044;-80
2021/12/03 02:34:55;;;;;;;19.63;13.33;;;1.10;99.90;;;;;;5075398;28;20762;-80
2021/12/03 02:37:21;;;;;;;18.83;12.87;;;1.00;99.90;;;;;;5052880;28;20111;-80
2021/12/03 02:39:47;;;;;;;20.27;14.07;;;1.10;99.90;;;;;;5074654;28;20036;-80
2021/12/03 02:42:12;;;;;;;26.13;14.57;;;1.00;99.90;;;;;;5074242;28;20440;-81
2021/12/03 02:44:38;;;;;;;21.03;14.80;;;1.00;99.90;;;;;;5074489;28;20106;-80
2021/12/03 02:47:04;;;;;;;20.03;14.50;;;1.00;99.90;;;;;;5069831;28;20421;-80
2021/12/03 02:49:30;;;;;;;20.67;14.43;;;1.10;99.90;;;;;;5087840;28;20037;-80
2021/12/03 02:51:56;;;;;;;21.77;14.87;;;1.10;99.90;;;;;;5073476;28;20464;-80
2021/12/03 02:54:21;;;;;;;20.80;15.03;;;1.10;99.90;;;;;;5074457;28;20495;-80
2021/12/03 02:56:47;;;;;;;22.57;15.47;;;1.10;99.90;;;;;;5072287;28;20143;-80
2021/12/03 02:59:13;;;;;;;22.63;15.53;;;1.10;99.90;;;;;;5073208;28;20495;-80
2021/12/03 03:01:38;;;;;;;23.00;17.20;;;1.00;99.90;;;;;;5073257;28;20044;-80
2021/12/03 03:04:04;;;;;;;20.67;16.63;;;1.00;99.90;;;;;;5073947;28;20041;-80
2021/12/03 03:06:30;;;;;;;24.60;17.23;;;1.00;99.90;;;;;;5073506;28;20044;-80
2021/12/03 03:08:56;;;;;;;23.63;17.37;;;1.00;99.90;;;;;;5072507;28;20503;-80
2021/12/03 03:11:22;;;;;;;23.70;17.17;;;1.00;99.90;;;;;;5089000;28;20040;-80
2021/12/03 03:13:48;;;;;;;24.50;18.90;;;1.00;99.90;;;;;;5071873;28;20040;-80
2021/12/03 03:16:16;;;;;;;23.67;17.33;;;1.00;99.90;;;;;;5072114;28;20147;-80
2021/12/03 03:18:41;;;;;;;26.30;20.87;;;1.00;99.90;;;;;;5088978;28;20484;-80
2021/12/03 03:21:07;;;;;;;25.77;19.27;;;1.00;99.90;;;;;;5089019;28;20040;-80
2021/12/03 03:23:34;;;;;;;25.47;19.17;;;1.00;99.90;;;;;;5089041;28;20045;-80
2021/12/03 03:26:00;;;;;;;26.00;19.27;;;0.90;99.90;;;;;;5086363;28;20045;-80
2021/12/03 03:28:26;;;;;;;28.47;18.93;;;0.90;99.90;;;;;;5071937;28;20077;-80
2021/12/03 03:30:54;;;;;;;25.77;19.27;;;1.00;99.90;;;;;;5089009;28;20050;-81
2021/12/03 03:33:20;;;;;;;26.43;19.20;;;0.90;99.90;;;;;;5072516;28;20041;-80
2021/12/03 03:35:47;;;;;;;25.53;18.70;;;0.90;99.90;;;;;;5085679;28;20532;-80
2021/12/03 03:38:14;;;;;;;25.40;19.33;;;0.90;99.90;;;;;;5067710;28;20034;-80
2021/12/03 03:40:41;;;;;;;24.83;20.07;;;0.90;99.90;;;;;;5087737;28;20037;-80
2021/12/03 03:43:07;;;;;;;27.87;19.87;;;0.80;99.90;;;;;;5071255;28;20059;-80
2021/12/03 03:45:35;;;;;;;22.80;16.97;;;0.80;99.90;;;;;;5069463;28;20044;-80
2021/12/03 03:48:03;;;;;;;25.57;18.33;;;0.80;99.90;;;;;;5071712;28;20048;-80
2021/12/03 03:50:28;;;;;;;29.87;19.50;;;0.80;99.90;;;;;;5089016;28;20033;-80
2021/12/03 03:52:56;;;;;;;24.10;18.63;;;0.80;99.90;;;;;;5070727;28;20048;-81
2021/12/03 03:55:22;;;;;;;25.47;18.83;;;0.70;99.90;;;;;;5088240;28;20439;-80
2021/12/03 03:57:50;;;;;;;25.23;18.53;;;0.70;99.90;;;;;;5087377;28;20113;-80
2021/12/03 04:00:21;;;;;;;28.13;19.43;;;0.70;99.90;;;;;;5067562;28;20165;-80
2021/12/03 04:02:47;;;;;;;26.57;20.30;;;0.70;99.90;;;;;;5084662;28;20058;-80
2021/12/03 04:05:13;;;;;;;28.17;20.40;;;0.70;99.90;;;;;;5087080;28;20039;-80
2021/12/03 04:07:39;;;;;;;31.43;20.47;;;0.70;99.90;;;;;;5070470;28;20046;-81
2021/12/03 04:10:06;;;;;;;25.50;19.77;;;0.70;99.90;;;;;;5070690;28;20098;-80
2021/12/03 04:12:33;;;;;;;25.83;20.17;;;0.70;99.90;;;;;;5067778;28;20454;-80
2021/12/03 04:14:59;;;;;;;25.03;18.97;;;0.70;99.90;;;;;;5070528;28;20423;-80
2021/12/03 04:17:24;;;;;;;28.20;19.73;;;0.70;99.90;;;;;;5069702;28;20032;-80
2021/12/03 04:19:50;;;;;;;28.20;19.90;;;0.70;99.90;;;;;;5070350;28;20491;-80
2021/12/03 04:22:18;;;;;;;29.00;19.60;;;0.70;99.90;;;;;;5070377;28;20040;-80
2021/12/03 04:24:44;;;;;;;30.67;20.50;;;0.70;99.90;;;;;;5086095;28;20409;-80
2021/12/03 04:27:09;;;;;;;27.07;19.00;;;0.70;99.90;;;;;;5053517;28;20037;-80
2021/12/03 04:29:35;;;;;;;29.90;19.70;;;0.70;99.90;;;;;;5070208;28;20059;-81
2021/12/03 04:32:01;;;;;;;27.93;19.30;;;0.70;99.90;;;;;;5070620;28;20099;-80
2021/12/03 04:34:26;;;;;;;27.00;19.37;;;0.70;99.90;;;;;;5069379;28;20548;-80
2021/12/03 04:36:52;;;;;;;25.37;18.57;;;0.70;99.90;;;;;;5069967;28;20035;-80
2021/12/03 04:39:17;;;;;;;27.20;19.30;;;0.70;99.90;;;;;;5070116;28;20036;-80
2021/12/03 04:41:43;;;;;;;27.47;19.40;;;0.70;99.90;;;;;;5054157;28;20161;-80
2021/12/03 04:44:09;;;;;;;27.73;19.90;;;0.70;99.90;;;;;;5071161;28;20103;-81
2021/12/03 04:46:35;;;;;;;25.17;19.20;;;0.70;99.90;;;;;;5071146;28;20603;-80
2021/12/03 04:49:00;;;;;;;26.07;18.83;;;0.70;99.90;;;;;;5087854;28;20036;-80
2021/12/03 04:51:26;;;;;;;23.13;18.23;;;0.70;99.90;;;;;;5087699;28;20041;-80
2021/12/03 04:53:52;;;;;;;25.53;18.43;;;0.70;99.90;;;;;;5069960;28;20053;-80
2021/12/03 04:56:18;;;;;;;24.37;16.27;;;0.70;99.90;;;;;;5070445;28;20037;-79
2021/12/03 04:58:43;;;;;;;24.33;17.97;;;0.60;99.90;;;;;;5071426;28;20072;-80
2021/12/03 05:01:09;;;;;;;24.30;18.33;;;0.70;99.90;;;;;;5071433;28;20056;-80
2021/12/03 05:03:37;;;;;;;26.97;18.80;;;0.70;99.90;;;;;;5088262;28;20044;-80
2021/12/03 05:06:03;;;;;;;25.63;19.90;;;0.70;99.90;;;;;;5087570;28;20044;-80
2021/12/03 05:08:30;;;;;;;20.90;17.00;;;0.70;99.90;;;;;;5086931;28;20079;-80
2021/12/03 05:10:57;;;;;;;26.97;19.33;;;0.60;99.90;;;;;;5054697;28;20044;-80
2021/12/03 05:13:26;;;;;;;25.07;17.70;;;0.60;99.90;;;;;;5087595;28;20063;-79
2021/12/03 05:15:52;;;;;;;21.93;18.40;;;0.60;99.90;;;;;;5087330;28;20059;-80
2021/12/03 05:18:20;;;;;;;27.50;20.50;;;0.60;99.90;;;;;;5071842;28;20037;-80
2021/12/03 05:20:47;;;;;;;25.23;19.57;;;0.60;99.90;;;;;;5070717;28;20067;-80
2021/12/03 05:23:14;;;;;;;24.70;17.83;;;0.60;99.90;;;;;;5088043;28;20396;-79
2021/12/03 05:25:40;;;;;;;25.20;19.13;;;0.70;99.90;;;;;;5087290;28;20036;-80
2021/12/03 05:28:06;;;;;;;25.80;19.70;;;0.60;99.90;;;;;;5069930;28;20082;-79
2021/12/03 05:30:32;;;;;;;23.50;17.23;;;0.60;99.90;;;;;;5069276;28;20040;-80
2021/12/03 05:32:58;;;;;;;26.07;19.13;;;0.60;99.90;;;;;;5087583;28;20044;-79
2021/12/03 05:35:26;;;;;;;26.00;17.67;;;0.60;99.90;;;;;;5087376;28;20045;-80
2021/12/03 05:37:52;;;;;;;20.23;17.03;;;0.60;99.90;;;;;;5073923;28;20511;-80
2021/12/03 05:40:19;;;;;;;24.97;18.93;;;0.60;99.90;;;;;;5073506;28;20032;-80
2021/12/03 05:42:46;;;;;;;26.27;20.57;;;0.60;99.90;;;;;;5074034;28;20037;-80
2021/12/03 05:45:15;;;;;;;24.10;18.50;;;0.60;99.90;;;;;;5076645;28;20158;-79
2021/12/03 05:47:41;;;;;;;28.53;19.60;;;0.60;99.90;;;;;;5073701;28;20044;-80
2021/12/03 05:50:09;;;;;;;26.30;19.60;;;0.60;99.90;;;;;;5073930;28;20053;-79
2021/12/03 05:52:34;;;;;;;24.67;18.47;;;0.60;99.90;;;;;;5075069;28;20040;-80
2021/12/03 05:55:00;;;;;;;24.70;20.63;;;0.60;99.90;;;;;;5076222;28;20102;-80
2021/12/03 05:57:25;;;;;;;30.53;20.50;;;0.60;99.90;;;;;;5074875;28;20037;-81
2021/12/03 05:59:51;;;;;;;21.23;17.50;;;0.60;99.90;;;;;;5074271;28;20770;-80
2021/12/03 06:02:17;;;;;;;28.07;19.60;;;0.70;99.90;;;;;;5073487;28;20165;-79
2021/12/03 06:04:43;;;;;;;27.10;18.70;;;0.60;99.90;;;;;;5056722;28;20129;-80
2021/12/03 06:07:08;;;;;;;26.00;19.97;;;0.70;99.90;;;;;;5056608;28;20208;-79
2021/12/03 06:09:34;;;;;;;26.00;19.97;;;0.70;99.90;;;;;;5073263;28;20480;-80
2021/12/03 06:12:01;;;;;;;21.77;16.93;;;0.70;99.90;;;;;;5076290;28;20086;-79
2021/12/03 06:14:28;;;;;;;27.30;19.67;;;0.70;99.90;;;;;;5078461;28;20051;-79
2021/12/03 06:16:54;;;;;;;23.83;18.80;;;0.70;99.90;;;;;;5094772;28;20038;-79
2021/12/03 06:19:20;;;;;;;24.27;18.43;;;0.80;99.90;;;;;;5094127;28;20044;-79
2021/12/03 06:21:45;;;;;;;24.77;17.83;;;0.80;99.90;;;;;;5075172;28;20044;-78
2021/12/03 06:24:11;;;;;;;27.40;19.17;;;0.80;99.90;;;;;;5060504;28;20032;-79
2021/12/03 06:26:36;;;;;;;27.70;19.20;;;0.70;99.90;;;;;;5076505;28;20079;-79
2021/12/03 06:29:02;;;;;;;30.63;19.07;;;0.80;99.90;;;;;;5078529;28;20044;-79
2021/12/03 06:31:28;;;;;;;26.63;17.20;;;0.80;99.90;;;;;;5077360;28;20036;-78
2021/12/03 06:33:54;;;;;;;23.53;17.57;;;0.90;99.90;;;;;;5062208;28;20036;-79
2021/12/03 06:36:19;;;;;;;21.37;17.33;;;1.00;99.90;;;;;;5077400;28;20033;-79
2021/12/03 06:38:45;;;;;;;25.30;16.70;;;1.00;99.90;;;;;;5079972;28;20063;-79
2021/12/03 06:41:10;;;;;;;24.30;18.20;;;1.00;99.90;;;;;;5060851;28;20464;-79
2021/12/03 06:43:36;;;;;;;21.27;16.27;;;1.00;99.90;;;;;;5079743;28;20072;-79
2021/12/03 06:46:02;;;;;;;24.87;16.53;;;1.00;99.90;;;;;;5079416;28;20052;-79
2021/12/03 06:48:28;;;;;;;21.57;15.50;;;1.00;99.90;;;;;;5095024;28;20044;-79
2021/12/03 06:50:53;;;;;;;21.10;16.17;;;1.00;99.90;;;;;;5077653;28;20033;-79
2021/12/03 06:53:23;;;;;;;20.77;15.27;;;1.00;99.90;;;;;;5062033;28;20112;-79
2021/12/03 06:55:53;;;;;;;24.30;15.70;;;1.00;99.90;;;;;;5093925;28;20067;-79
2021/12/03 06:58:20;;;;;;;24.70;15.77;;;1.10;99.90;;;;;;5093569;28;20036;-79
2021/12/03 07:00:48;;;;;;;19.80;14.13;;;1.10;99.90;;;;;;5076958;28;20060;-79
2021/12/03 07:03:14;;;;;;;24.93;15.17;;;1.20;99.90;;;;;;5095885;28;20066;-79
2021/12/03 07:05:39;;;;;;;19.73;14.70;;;1.20;99.90;;;;;;5078379;28;20040;-79
2021/12/03 07:08:05;;;;;;;21.17;12.63;;;1.20;99.90;;;;;;5075772;28;20032;-79
2021/12/03 07:10:32;;;;;;;24.87;13.50;;;1.20;99.90;;;;;;5095781;28;20041;-79
2021/12/03 07:12:58;;;;;;;19.37;12.83;;;1.30;99.90;;;;;;5077964;28;20040;-80
2021/12/03 07:15:24;;;;;;;20.03;12.87;;;1.30;99.90;;;;;;5079019;28;20059;-79
2021/12/03 07:17:51;;;;;;;19.47;12.60;;;1.30;99.90;;;;;;5076295;28;20086;-79
2021/12/03 07:20:19;;;;;;;25.10;13.67;;;1.40;99.90;;;;;;5077872;28;20046;-79
2021/12/03 07:22:45;;;;;;;20.77;14.30;;;1.40;99.90;;;;;;5055935;28;20032;-79
2021/12/03 07:25:11;;;;;;;21.90;13.17;;;1.50;99.90;;;;;;5072588;28;20111;-78
2021/12/03 07:27:37;;;;;;;19.57;12.93;;;1.50;99.90;;;;;;5095410;28;20044;-80
2021/12/03 07:30:04;;;;;;;24.10;16.40;;;1.50;99.90;;;;;;5101338;28;20121;-80
2021/12/03 07:32:30;;;;;;;24.90;15.60;;;1.50;99.90;;;;;;5066604;28;20064;-80
2021/12/03 07:34:56;;;;;;;21.20;14.13;;;1.50;99.90;;;;;;5102086;28;20040;-80
2021/12/03 07:37:22;;;;;;;24.93;17.60;;;1.50;99.90;;;;;;5082654;28;20028;-81
2021/12/03 07:39:48;;;;;;;31.70;19.60;;;1.50;99.90;;;;;;5101220;28;20104;-80
2021/12/03 07:42:14;;;;;;;31.23;18.57;;;1.50;99.90;;;;;;5108740;28;21193;-79
2021/12/03 07:44:39;;;;;;;32.00;18.33;;;1.50;99.90;;;;;;5079163;28;20036;-80
2021/12/03 07:47:05;;;;;;;31.30;19.27;;;1.50;99.90;;;;;;5112735;28;20084;-79
2021/12/03 07:49:30;;;;;;;28.80;18.73;;;1.50;99.90;;;;;;5079120;28;20035;-79
2021/12/03 07:51:56;;;;;;;27.07;17.03;;;1.50;99.90;;;;;;5079149;28;20075;-80
2021/12/03 07:54:23;;;;;;;27.93;18.10;;;1.50;99.90;;;;;;5075383;28;20020;-79
2021/12/03 07:56:49;;;;;;;27.23;16.27;;;1.50;99.90;;;;;;5095229;28;20047;-80
2021/12/03 07:59:15;;;;;;;27.23;18.57;;;1.50;99.90;;;;;;5094826;28;20127;-79
2021/12/03 08:01:42;;;;;;;29.90;18.37;;;1.60;99.90;;;;;;5071658;28;20040;-79
2021/12/03 08:04:09;;;;;;;25.20;16.63;;;1.60;99.90;;;;;;5100101;28;20118;-80
2021/12/03 08:06:38;;;;;;;28.00;16.63;;;1.60;99.90;;;;;;5101312;28;20086;-79
2021/12/03 08:09:04;;;;;;;27.47;17.93;;;1.60;99.90;;;;;;5096459;28;20037;-80
2021/12/03 08:11:29;;;;;;;27.23;17.57;;;1.60;99.90;;;;;;5084925;28;20082;-79
2021/12/03 08:13:55;;;;;;;33.17;19.10;;;1.60;99.90;;;;;;5082883;28;20134;-79
2021/12/03 08:16:20;;;;;;;34.43;20.40;;;1.60;99.90;;;;;;5084875;28;20040;-81
2021/12/03 08:18:46;;;;;;;26.53;17.03;;;1.50;99.90;;;;;;5084945;28;20039;-81
2021/12/03 08:21:12;;;;;;;31.27;20.23;;;1.50;99.90;;;;;;5085061;28;20101;-81
2021/12/03 08:23:37;;;;;;;32.87;20.73;;;1.50;99.90;;;;;;5067608;28;20058;-80
2021/12/03 08:26:03;;;;;;;30.63;20.60;;;1.50;99.90;;;;;;5084953;28;20060;-81
2021/12/03 08:28:28;;;;;;;31.97;18.67;;;1.50;99.90;;;;;;5068355;28;20035;-81
2021/12/03 08:30:54;;;;;;;31.03;18.53;;;1.50;99.90;;;;;;5083898;28;20114;-80
2021/12/03 08:33:20;;;;;;;38.10;20.80;;;1.60;99.90;;;;;;5085492;28;20037;-81
2021/12/03 08:35:46;;;;;;;36.23;20.53;;;1.60;99.90;;;;;;5084371;28;20032;-81
2021/12/03 08:38:12;;;;;;;33.67;21.67;;;1.70;99.90;;;;;;5102530;28;20048;-81
2021/12/03 08:40:37;;;;;;;31.83;19.67;;;1.70;99.90;;;;;;5067576;28;20054;-80
2021/12/03 08:43:03;;;;;;;38.20;20.87;;;1.70;99.90;;;;;;5103056;28;20797;-80
2021/12/03 08:45:29;;;;;;;36.07;21.90;;;1.70;99.90;;;;;;5067985;28;20052;-81
2021/12/03 08:47:58;;;;;;;34.80;22.00;;;1.70;99.90;;;;;;5086163;28;20055;-80
2021/12/03 08:50:37;;;;;;;40.53;23.83;;;1.80;99.90;;;;;;5100069;28;20044;-80
2021/12/03 08:53:15;;;;;;;39.70;24.07;;;1.80;99.90;;;;;;5084273;28;20051;-80
2021/12/03 08:55:42;;;;;;;42.63;24.97;;;1.80;99.90;;;;;;5098040;28;20040;-80
2021/12/03 08:58:10;;;;;;;41.40;23.70;;;1.80;99.90;;;;;;5066982;28;20041;-80
2021/12/03 09:00:37;;;;;;;39.03;23.70;;;1.90;99.90;;;;;;5081767;28;20096;-79
2021/12/03 09:03:04;;;;;;;38.30;22.73;;;1.90;99.90;;;;;;5082417;28;20045;-80
2021/12/03 09:05:31;;;;;;;51.47;26.93;;;1.90;99.90;;;;;;5100095;28;20045;-80
2021/12/03 09:07:57;;;;;;;45.03;27.03;;;2.00;99.90;;;;;;5099207;28;20062;-80
2021/12/03 09:10:24;;;;;;;42.17;24.53;;;2.00;99.90;;;;;;5083473;28;20044;-80
2021/12/03 09:12:51;;;;;;;39.73;23.93;;;2.00;99.90;;;;;;5084077;28;20503;-80
2021/12/03 09:15:21;;;;;;;45.63;25.70;;;2.00;99.90;;;;;;5086100;28;20028;-80
2021/12/03 09:20:32;;;;;;;47.30;27.70;;;2.10;99.90;;;;;;5086664;28;20067;-81
2021/12/03 09:23:01;;;;;;;48.35;27.42;;;2.10;99.90;;;;;;5069320;28;20311;-81
2021/12/03 09:25:33;;;;;;;47.80;30.40;;;2.20;99.90;;;;;;5087726;28;20036;-81
2021/12/03 09:28:02;;;;;;;45.30;27.03;;;2.20;99.90;;;;;;5103242;28;20059;-82
2021/12/03 09:30:35;;;;;;;49.50;29.27;;;2.20;99.90;;;;;;5087911;28;20032;-82
2021/12/03 09:33:02;;;;;;;230.50;130.93;;;2.30;99.90;;;;;;5102757;28;20058;-82
2021/12/03 09:35:30;;;;;;;53.20;28.93;;;2.30;99.90;;;;;;5087646;28;20226;-81
2021/12/03 09:37:55;;;;;;;145.40;80.43;;;2.30;99.90;;;;;;5087171;28;20040;-82
2021/12/03 09:40:24;;;;;;;50.43;28.77;;;2.40;99.90;;;;;;5086595;28;20458;-81
2021/12/03 09:42:50;;;;;;;68.83;38.40;;;2.40;99.90;;;;;;5086854;28;20032;-81
2021/12/03 09:45:16;;;;;;;49.00;27.43;;;2.40;99.90;;;;;;5069699;28;20039;-81
2021/12/03 09:47:42;;;;;;;44.90;27.10;;;2.40;99.90;;;;;;5083910;28;20032;-81
2021/12/03 09:50:13;;;;;;;45.53;26.10;;;2.50;99.90;;;;;;5101015;28;20036;-81
2021/12/03 09:53:05;;;;;;;48.10;26.70;;;2.50;99.90;;;;;;5104506;28;20044;-80
2021/12/03 09:55:31;;;;;;;44.63;20.67;;;2.50;99.90;;;;;;5084772;28;20029;-80
2021/12/03 10:03:12;;;;;;;50.77;26.97;;;2.60;99.90;;;;;;5086493;28;20104;-81
2021/12/03 10:09:54;;;;;;;42.93;25.57;;;2.60;99.90;;;;;;5083421;28;20044;-82
2021/12/03 10:25:12;;;;;;;39.43;22.40;;;2.90;99.90;;;;;;5085392;28;20048;-81
2021/12/03 10:33:13;;;;;;;31.43;18.90;;;3.10;99.90;;;;;;5083126;28;20401;-81
2021/12/03 10:38:31;;;;;;;31.73;15.10;;;3.10;99.90;;;;;;5084797;28;20074;-81
2021/12/03 10:44:10;;;;;;;26.38;17.02;;;3.20;99.90;;;;;;5084698;28;20059;-81
2021/12/03 10:46:53;;;;;;;25.27;12.23;;;3.10;99.90;;;;;;5081198;28;20059;-80
2021/12/03 10:50:28;;;;;;;23.37;12.30;;;3.10;99.90;;;;;;5082082;28;20117;-81
2021/12/03 10:52:24;;;;;;;28.03;13.73;;;3.20;99.90;;;;;;5069605;28;20187;-81
2021/12/03 10:55:18;;;;;;;27.40;15.33;;;3.20;99.90;;;;;;5063542;28;20032;-82
2021/12/03 10:58:08;;;;;;;29.90;11.93;;;3.20;99.90;;;;;;5077022;28;20041;-79
2021/12/03 11:28:17;;;;;;;15.73;8.47;;;3.30;99.90;;;;;;5085552;28;20048;-81
2021/12/03 12:10:34;;;;;;;13.97;5.40;;;3.20;99.90;;;;;;5084475;28;20056;-82
2021/12/03 12:17:09;;;;;;;13.30;5.03;;;3.20;99.90;;;;;;5027494;28;20041;-82
2021/12/03 12:25:12;;;;;;;9.23;4.47;;;3.00;99.90;;;;;;5083976;28;20044;-80
2021/12/03 12:56:43;;;;;;;9.77;5.30;;;2.80;99.90;;;;;;5090207;28;20036;-81
2021/12/03 13:15:22;;;;;;;10.18;5.15;;;3.00;99.90;;;;;;5090015;28;20051;-82
2021/12/03 13:20:49;;;;;;;10.37;5.90;;;3.00;99.90;;;;;;5090268;28;20036;-82
2021/12/03 13:29:21;;;;;;;12.90;6.70;;;3.10;99.90;;;;;;5092941;28;20112;-83
2021/12/03 13:46:34;;;;;;;15.93;7.00;;;3.20;99.90;;;;;;5094826;28;20044;-83
2021/12/03 13:59:38;;;;;;;23.07;7.40;;;3.20;99.90;;;;;;5078403;28;20053;-81
2021/12/03 14:05:07;;;;;;;16.47;8.67;;;3.10;99.90;;;;;;5078611;28;20045;-81
2021/12/03 14:19:12;;;;;;;14.18;8.38;;;3.10;99.90;;;;;;5098350;28;20078;-83
2021/12/03 14:25:35;;;;;;;15.57;8.90;;;3.10;99.90;;;;;;5095520;28;20146;-83
2021/12/03 14:37:42;;;;;;;14.63;7.57;;;3.30;99.90;;;;;;5090652;28;20089;-83
2021/12/03 14:43:04;;;;;;;10.80;4.80;;;3.30;99.90;;;;;;5088482;28;20128;-82
2021/12/03 14:53:23;;;;;;;9.68;4.90;;;3.50;99.90;;;;;;5087038;28;20044;-82
2021/12/03 14:55:54;;;;;;;12.88;5.55;;;3.60;99.90;;;;;;5070112;28;20075;-81
2021/12/03 14:58:21;;;;;;;7.93;4.25;;;3.60;99.90;;;;;;5069921;28;20037;-81
2021/12/03 15:00:56;;;;;;;9.93;5.30;;;3.60;99.90;;;;;;5102241;28;20033;-81
2021/12/03 15:03:42;;;;;;;11.55;5.07;;;3.70;99.90;;;;;;5068354;28;20037;-81
2021/12/03 15:06:17;;;;;;;11.25;5.25;;;3.70;99.90;;;;;;5101901;28;20100;-81
2021/12/03 15:09:09;;;;;;;8.32;4.55;;;3.70;99.90;;;;;;5067413;28;20032;-81
2021/12/03 15:22:43;;;;;;;11.32;5.97;;;3.90;99.90;;;;;;5084881;28;20105;-82
2021/12/03 15:30:32;;;;;;;13.63;5.45;;;3.90;99.90;;;;;;5079243;28;20052;-80
2021/12/03 15:33:08;;;;;;;13.18;6.00;;;3.90;99.90;;;;;;5079423;28;20128;-80
2021/12/03 15:35:52;;;;;;;9.70;5.68;;;4.00;99.90;;;;;;5096165;28;20528;-79
2021/12/03 15:38:44;;;;;;;10.15;6.22;;;3.90;99.90;;;;;;5078016;28;20043;-80
2021/12/03 15:52:03;;;;;;;12.13;7.15;;;3.90;99.90;;;;;;5082675;28;20090;-81
2021/12/03 15:52:47;;;;;;;10.07;6.22;;;4.00;99.90;;;;;;5057478;28;20510;-79
2021/12/03 15:55:38;;;;;;;11.38;6.43;;;4.00;99.90;;;;;;5071741;28;20052;-79
2021/12/03 15:58:28;;;;;;;14.50;7.57;;;4.00;99.90;;;;;;5074955;28;20492;-79
2021/12/03 16:03:46;;;;;;;10.80;6.93;;;4.00;99.90;;;;;;5076628;28;20044;-79
2021/12/03 16:08:58;;;;;;;12.85;8.43;;;4.00;99.90;;;;;;5077108;28;20128;-80
2021/12/03 16:14:10;;;;;;;8.55;7.10;;;4.10;99.90;;;;;;5082194;28;20488;-80
2021/12/03 16:19:24;;;;;;;12.10;9.02;;;4.10;99.90;;;;;;5078952;28;20108;-80
2021/12/03 16:46:22;;;;;;;11.25;9.63;;;4.10;99.90;;;;;;5082111;28;20070;-81
2021/12/03 16:49:37;;;;;;;12.77;10.93;;;4.10;99.90;;;;;;5085956;28;20090;-82
2021/12/03 16:51:47;;;;;;;14.57;11.07;;;4.10;99.90;;;;;;5083343;28;20048;-82
2021/12/03 16:54:20;;;;;;;13.25;9.98;;;4.10;99.90;;;;;;5084542;28;20036;-80
2021/12/03 16:56:47;;;;;;;19.25;12.73;;;4.10;99.90;;;;;;5066845;28;20126;-81
2021/12/03 16:59:13;;;;;;;15.20;10.98;;;4.10;99.90;;;;;;5070173;28;20035;-79
2021/12/03 17:01:48;;;;;;;14.07;10.23;;;4.10;99.90;;;;;;5084735;28;20068;-83
2021/12/03 17:07:27;;;;;;;18.33;11.68;;;4.10;99.90;;;;;;5064418;28;20041;-82
2021/12/03 17:10:05;;;;;;;18.98;13.18;;;4.10;99.90;;;;;;5078678;28;20036;-83
2021/12/03 17:15:15;;;;;;;21.23;14.52;;;4.10;99.90;;;;;;5081977;28;20398;-83
2021/12/03 17:44:54;;;;;;;23.20;16.40;;;4.00;99.90;;;;;;5085478;28;20044;-84
2021/12/03 17:50:14;;;;;;;23.23;16.58;;;4.10;99.90;;;;;;5086117;28;20131;-83
2021/12/03 17:53:31;;;;;;;24.38;17.85;;;4.00;99.90;;;;;;5104090;28;20082;-81
2021/12/03 18:01:37;;;;;;;25.13;17.25;;;4.10;99.90;;;;;;5084926;28;20064;-83
2021/12/03 18:03:47;;;;;;;;;;;4.10;99.90;;;;;;5076981;28;20047;-83
2021/12/03 18:43:16;;;;;;;27.67;16.77;;;4.10;99.90;;;;;;5054854;28;20105;-81
2021/12/03 18:44:50;;;;;;;25.45;18.25;;;4.20;99.90;;;;;;5073087;28;20049;-81
2021/12/03 18:55:08;;;;;;;28.60;18.90;;;4.20;99.90;;;;;;5074159;28;20049;-82
2021/12/03 18:57:44;;;;;;;27.92;17.98;;;4.20;99.90;;;;;;5073323;28;20037;-81
2021/12/03 19:00:16;;;;;;;29.08;18.20;;;4.30;99.90;;;;;;5084282;28;20048;-83
2021/12/03 19:02:47;;;;;;;26.30;19.50;;;4.20;99.90;;;;;;5074248;28;20037;-81